createdAt,value
2023-03-06T00:00:47.964Z,50.33
2023-03-06T00:03:21.461Z,50.14
2023-03-06T00:05:50.875Z,50.30
2023-03-06T00:08:20.429Z,50.20
2023-03-06T00:10:49.649Z,49.91
2023-03-06T00:13:20.794Z,50.11
2023-03-06T00:15:50.237Z,50.02
2023-03-06T00:18:19.788Z,50.12
2023-03-06T00:20:49.060Z,50.13
2023-03-06T00:23:18.544Z,50.15
2023-03-06T00:25:47.786Z,50.17
2023-03-06T00:28:17.954Z,50.81
2023-03-06T00:30:48.615Z,50.99
2023-03-06T00:33:18.158Z,50.42
2023-03-06T00:35:47.367Z,50.34
2023-03-06T00:38:17.012Z,50.73
2023-03-06T00:40:46.233Z,50.41
2023-03-06T00:43:15.809Z,50.20
2023-03-06T00:45:45.155Z,50.56
2023-03-06T00:48:16.170Z,50.74
2023-03-06T00:50:45.342Z,50.77
2023-03-06T00:53:14.849Z,50.63
2023-03-06T00:55:45.538Z,51.07
2023-03-06T00:58:15.094Z,51.13
2023-03-06T01:00:44.299Z,50.86
2023-03-06T01:03:13.857Z,51.33
2023-03-06T01:05:44.491Z,50.99
2023-03-06T01:08:14.069Z,51.06
2023-03-06T01:10:43.283Z,51.96
2023-03-06T01:13:12.819Z,52.13
2023-03-06T01:15:42.005Z,51.82
2023-03-06T01:18:11.550Z,51.92
2023-03-06T01:20:40.775Z,51.59
2023-03-06T01:23:11.834Z,52.31
2023-03-06T01:25:41.062Z,52.20
2023-03-06T01:28:10.533Z,51.82
2023-03-06T01:30:39.723Z,52.50
2023-03-06T01:33:09.246Z,52.46
2023-03-06T01:35:39.352Z,51.98
2023-03-06T01:38:08.932Z,51.82
2023-03-06T01:40:39.984Z,52.11
2023-03-06T01:43:13.388Z,52.10
2023-03-06T01:46:01.255Z,52.03
2023-03-06T01:48:31.029Z,52.22
2023-03-06T01:51:00.219Z,52.50
2023-03-06T01:53:29.813Z,52.48
2023-03-06T01:56:00.480Z,52.66
2023-03-06T01:58:29.959Z,52.71
2023-03-06T02:00:59.286Z,52.89
2023-03-06T02:03:28.841Z,52.83
2023-03-06T02:05:58.040Z,52.47
2023-03-06T02:08:27.586Z,52.62
2023-03-06T02:11:03.674Z,52.99
2023-03-06T02:13:33.345Z,52.62
2023-03-06T02:16:02.561Z,53.17
2023-03-06T02:18:32.123Z,52.66
2023-03-06T02:21:02.054Z,52.62
2023-03-06T02:23:33.134Z,52.64
2023-03-06T02:26:03.896Z,52.31
2023-03-06T02:28:33.522Z,52.19
2023-03-06T02:31:02.784Z,52.22
2023-03-06T02:33:32.320Z,52.48
2023-03-06T02:36:01.947Z,52.47
2023-03-06T02:38:33.329Z,52.00
2023-03-06T02:41:05.334Z,52.41
2023-03-06T02:43:38.317Z,52.14
2023-03-06T02:46:07.616Z,52.50
2023-03-06T02:48:37.173Z,52.57
2023-03-06T02:51:06.545Z,52.05
2023-03-06T02:53:36.033Z,52.32
2023-03-06T02:56:06.995Z,52.06
2023-03-06T02:58:36.552Z,52.31
2023-03-06T03:01:06.030Z,52.22
2023-03-06T03:03:35.671Z,52.44
2023-03-06T03:06:05.412Z,52.12
2023-03-06T03:08:35.451Z,52.51
2023-03-06T03:11:05.364Z,52.33
2023-03-06T03:13:37.698Z,52.17
2023-03-06T03:16:07.777Z,51.97
2023-03-06T03:18:37.441Z,52.44
2023-03-06T03:21:08.406Z,52.64
2023-03-06T03:23:37.943Z,52.26
2023-03-06T03:26:08.020Z,52.02
2023-03-06T03:28:39.144Z,52.14
2023-03-06T03:31:08.787Z,52.15
2023-03-06T03:33:38.408Z,52.29
2023-03-06T03:36:08.058Z,52.21
2023-03-06T03:38:37.630Z,52.38
2023-03-06T03:41:06.976Z,52.31
2023-03-06T03:43:36.450Z,52.32
2023-03-06T03:46:07.465Z,52.60
2023-03-06T03:48:37.039Z,52.16
2023-03-06T03:51:06.833Z,52.07
2023-03-06T03:53:36.315Z,51.97
2023-03-06T03:56:05.829Z,52.17
2023-03-06T03:58:35.374Z,51.94
2023-03-06T04:01:04.576Z,51.84
2023-03-06T04:03:35.536Z,51.91
2023-03-06T04:06:04.831Z,51.98
2023-03-06T04:08:34.438Z,51.98
2023-03-06T04:11:03.861Z,51.79
2023-03-06T04:13:33.439Z,51.71
2023-03-06T04:16:02.777Z,51.94
2023-03-06T04:18:32.399Z,51.81
2023-03-06T04:21:03.073Z,51.87
2023-03-06T04:23:32.569Z,51.54
2023-03-06T04:26:01.746Z,52.01
2023-03-06T04:28:31.340Z,51.97
2023-03-06T04:31:00.674Z,51.90
2023-03-06T04:33:30.215Z,51.88
2023-03-06T04:35:59.370Z,52.05
2023-03-06T04:38:30.418Z,51.67
2023-03-06T04:40:59.635Z,51.77
2023-03-06T04:43:29.194Z,51.53
2023-03-06T04:45:59.517Z,51.81
2023-03-06T04:48:29.110Z,51.74
2023-03-06T04:50:58.352Z,51.86
2023-03-06T04:53:27.898Z,51.47
2023-03-06T04:55:58.575Z,51.73
2023-03-06T04:58:28.152Z,51.84
2023-03-06T05:00:57.477Z,51.60
2023-03-06T05:03:27.062Z,51.86
2023-03-06T05:05:56.241Z,51.63
2023-03-06T05:08:25.744Z,51.73
2023-03-06T05:10:55.625Z,51.87
2023-03-06T05:13:26.917Z,51.96
2023-03-06T05:15:56.239Z,51.99
2023-03-06T05:18:25.882Z,52.34
2023-03-06T05:20:59.483Z,51.94
2023-03-06T05:23:29.279Z,52.37
2023-03-06T05:25:58.468Z,52.43
2023-03-06T05:28:29.794Z,52.13
2023-03-06T05:30:59.006Z,52.42
2023-03-06T05:33:28.583Z,52.59
2023-03-06T05:35:57.792Z,52.58
2023-03-06T05:38:27.467Z,52.98
2023-03-06T05:40:56.736Z,52.78
2023-03-06T05:43:26.359Z,53.11
2023-03-06T05:46:03.403Z,53.53
2023-03-06T05:48:33.202Z,53.47
2023-03-06T05:51:02.679Z,54.76
2023-03-06T05:53:32.405Z,54.80
2023-03-06T05:56:02.246Z,54.51
2023-03-06T05:58:32.148Z,55.38
2023-03-06T06:01:02.762Z,54.67
2023-03-06T06:03:32.372Z,55.19
2023-03-06T06:06:04.808Z,54.97
2023-03-06T06:08:34.572Z,54.84
2023-03-06T06:11:03.755Z,54.70
2023-03-06T06:13:33.360Z,54.79
2023-03-06T06:16:07.358Z,54.88
2023-03-06T06:18:39.229Z,55.08
2023-03-06T06:21:10.326Z,54.48
2023-03-06T06:23:39.938Z,54.48
2023-03-06T06:26:09.572Z,54.69
2023-03-06T06:28:39.172Z,54.80
2023-03-06T06:31:13.491Z,54.38
2023-03-06T06:33:43.244Z,54.58
2023-03-06T06:36:21.674Z,54.65
2023-03-06T06:38:51.259Z,54.68
2023-03-06T06:41:46.081Z,54.37
2023-03-06T06:44:11.453Z,54.25
2023-03-06T06:47:21.954Z,54.41
2023-03-06T06:49:33.493Z,54.86
2023-03-06T06:52:02.725Z,54.76
2023-03-06T06:54:32.311Z,55.65
2023-03-06T06:57:01.505Z,55.23
2023-03-06T06:59:31.094Z,54.85
2023-03-06T07:02:01.780Z,54.99
2023-03-06T07:04:31.333Z,55.65
2023-03-06T07:07:01.258Z,54.98
2023-03-06T07:09:31.669Z,55.34
2023-03-06T07:12:00.850Z,55.43
2023-03-06T07:14:30.441Z,55.36
2023-03-06T07:16:59.713Z,55.52
2023-03-06T07:19:30.710Z,55.50
2023-03-06T07:22:00.598Z,55.33
2023-03-06T07:24:30.164Z,55.03
2023-03-06T07:26:59.385Z,55.39
2023-03-06T07:29:29.384Z,55.25
2023-03-06T07:31:58.690Z,54.97
2023-03-06T07:34:28.312Z,54.78
2023-03-06T07:36:58.968Z,54.92
2023-03-06T07:39:30.230Z,54.95
2023-03-06T07:41:59.993Z,55.16
2023-03-06T07:44:29.669Z,54.59
2023-03-06T07:46:58.926Z,54.82
2023-03-06T07:49:28.822Z,54.65
2023-03-06T07:51:59.556Z,54.69
2023-03-06T07:54:30.780Z,54.66
2023-03-06T07:56:59.933Z,54.59
2023-03-06T07:59:29.533Z,54.20
2023-03-06T08:01:58.756Z,54.34
2023-03-06T08:04:29.110Z,54.27
2023-03-06T08:07:01.583Z,54.40
2023-03-06T08:09:31.336Z,54.14
2023-03-06T08:12:00.434Z,54.12
2023-03-06T08:14:30.221Z,53.91
2023-03-06T08:16:59.542Z,54.13
2023-03-06T08:19:29.302Z,54.22
2023-03-06T08:21:58.541Z,53.87
2023-03-06T08:24:29.722Z,54.34
2023-03-06T08:26:58.965Z,53.87
2023-03-06T08:29:28.652Z,54.01
2023-03-06T08:31:57.855Z,53.49
2023-03-06T08:34:27.464Z,53.83
2023-03-06T08:36:56.682Z,53.85
2023-03-06T08:39:26.294Z,53.52
2023-03-06T08:41:56.992Z,53.61
2023-03-06T08:44:26.628Z,53.30
2023-03-06T08:46:55.816Z,53.38
2023-03-06T08:49:25.660Z,53.55
2023-03-06T08:51:54.984Z,53.35
2023-03-06T08:54:24.535Z,53.29
2023-03-06T08:56:54.397Z,52.92
2023-03-06T08:59:26.051Z,52.64
2023-03-06T09:01:55.375Z,53.04
2023-03-06T09:04:35.339Z,52.55
2023-03-06T09:07:04.613Z,52.82
2023-03-06T09:09:34.262Z,52.92
2023-03-06T09:12:03.510Z,52.65
2023-03-06T09:14:34.595Z,52.52
2023-03-06T09:17:03.788Z,52.53
2023-03-06T09:19:33.396Z,52.23
2023-03-06T09:22:02.588Z,52.48
2023-03-06T09:24:32.182Z,52.32
2023-03-06T09:27:02.074Z,52.39
2023-03-06T09:29:31.759Z,52.17
2023-03-06T09:32:02.508Z,51.56
2023-03-06T09:34:32.091Z,51.84
2023-03-06T09:37:03.214Z,51.22
2023-03-06T09:39:32.862Z,51.45
2023-03-06T09:42:02.164Z,50.02
2023-03-06T09:44:32.160Z,51.04
2023-03-06T09:47:05.581Z,51.14
2023-03-06T09:49:43.909Z,50.83
2023-03-06T09:52:19.577Z,51.17
2023-03-06T09:54:49.673Z,51.01
2023-03-06T09:57:20.947Z,50.67
2023-03-06T09:59:52.510Z,50.81
2023-03-06T10:02:24.567Z,51.00
2023-03-06T10:04:56.261Z,50.96
2023-03-06T10:07:26.059Z,50.36
2023-03-06T10:09:57.763Z,50.55
2023-03-06T10:12:28.652Z,50.29
2023-03-06T10:15:03.108Z,49.64
2023-03-06T10:17:35.231Z,50.01
2023-03-06T10:20:11.594Z,49.87
2023-03-06T10:22:41.347Z,50.14
2023-03-06T10:25:13.047Z,49.81
2023-03-06T10:27:44.502Z,49.97
2023-03-06T10:30:21.465Z,49.94
2023-03-06T10:32:55.216Z,49.94
2023-03-06T10:35:30.450Z,50.14
2023-03-06T10:38:01.317Z,49.27
2023-03-06T10:40:32.871Z,49.98
2023-03-06T10:43:11.326Z,49.09
2023-03-06T10:45:49.325Z,49.41
2023-03-06T10:48:21.801Z,49.03
2023-03-06T10:50:51.334Z,49.36
2023-03-06T10:53:21.652Z,49.12
2023-03-06T10:55:55.330Z,49.57
2023-03-06T10:58:25.811Z,48.49
2023-03-06T11:01:01.921Z,48.70
2023-03-06T11:03:32.778Z,48.97
2023-03-06T11:06:12.269Z,48.73
2023-03-06T11:08:42.490Z,48.31
2023-03-06T11:11:13.244Z,48.39
2023-03-06T11:13:43.308Z,48.47
2023-03-06T11:16:19.032Z,48.54
2023-03-06T11:18:59.566Z,48.26
2023-03-06T11:21:31.471Z,48.23
2023-03-06T11:24:04.281Z,48.00
2023-03-06T11:26:42.913Z,47.80
2023-03-06T11:29:38.676Z,48.02
2023-03-06T11:32:10.760Z,47.75
2023-03-06T11:34:42.130Z,48.30
2023-03-06T11:37:13.587Z,48.09
2023-03-06T11:39:43.513Z,48.05
2023-03-06T11:42:15.614Z,47.96
2023-03-06T11:44:53.516Z,47.92
2023-03-06T11:47:24.805Z,47.64
2023-03-06T11:49:56.849Z,48.27
2023-03-06T11:52:26.856Z,47.98
2023-03-06T11:54:56.751Z,47.42
2023-03-06T11:57:27.297Z,47.34
2023-03-06T12:00:17.558Z,47.54
2023-03-06T12:03:02.024Z,47.85
2023-03-06T12:05:35.890Z,47.65
2023-03-06T12:08:29.332Z,47.38
2023-03-06T12:10:59.828Z,47.33
2023-03-06T12:13:38.452Z,47.47
2023-03-06T12:16:10.240Z,46.92
2023-03-06T12:18:43.212Z,47.15
2023-03-06T12:21:15.224Z,47.10
2023-03-06T12:23:56.216Z,47.07
2023-03-06T12:26:32.145Z,47.20
2023-03-06T12:29:08.106Z,47.07
2023-03-06T12:31:40.964Z,47.26
2023-03-06T12:34:15.395Z,47.15
2023-03-06T12:36:49.023Z,47.25
2023-03-06T12:39:19.150Z,47.15
2023-03-06T12:41:51.858Z,47.30
2023-03-06T12:44:26.982Z,47.12
2023-03-06T12:46:56.655Z,47.28
2023-03-06T12:49:32.470Z,47.54
2023-03-06T12:52:03.967Z,47.27
2023-03-06T12:54:35.211Z,47.08
2023-03-06T12:57:04.582Z,47.23
2023-03-06T12:59:42.495Z,47.39
2023-03-06T13:02:26.582Z,46.90
2023-03-06T13:05:01.538Z,47.08
2023-03-06T13:07:37.178Z,47.51
2023-03-06T13:10:08.870Z,46.74
2023-03-06T13:12:40.419Z,46.96
2023-03-06T13:15:29.450Z,46.78
2023-03-06T13:17:58.705Z,47.08
2023-03-06T13:20:35.310Z,47.15
2023-03-06T13:23:19.517Z,47.12
2023-03-06T13:25:51.106Z,46.82
2023-03-06T13:28:24.122Z,47.14
2023-03-06T13:30:53.704Z,46.95
2023-03-06T13:33:41.584Z,47.00
2023-03-06T13:36:24.654Z,46.61
2023-03-06T13:39:00.895Z,46.67
2023-03-06T13:41:43.669Z,46.93
2023-03-06T13:44:30.988Z,47.16
2023-03-06T13:47:00.686Z,47.25
2023-03-06T13:49:29.909Z,46.78
2023-03-06T13:52:08.654Z,47.06
2023-03-06T13:54:39.841Z,46.68
2023-03-06T13:57:17.737Z,46.93
2023-03-06T14:00:08.219Z,46.80
2023-03-06T14:02:41.622Z,46.82
2023-03-06T14:05:12.182Z,46.83
2023-03-06T14:07:41.848Z,46.29
2023-03-06T14:10:15.763Z,46.31
2023-03-06T14:12:55.829Z,46.37
2023-03-06T14:15:25.750Z,45.65
2023-03-06T14:17:56.336Z,45.74
2023-03-06T14:20:27.750Z,45.79
2023-03-06T14:23:10.156Z,45.40
2023-03-06T14:25:39.433Z,46.05
2023-03-06T14:28:20.999Z,45.74
2023-03-06T14:30:50.855Z,46.09
2023-03-06T14:33:27.012Z,46.25
2023-03-06T14:35:56.665Z,46.07
2023-03-06T14:38:26.380Z,45.99
2023-03-06T14:40:55.594Z,46.06
2023-03-06T14:43:27.558Z,46.05
2023-03-06T14:45:57.699Z,46.32
2023-03-06T14:48:27.766Z,46.54
2023-03-06T14:50:57.599Z,46.89
2023-03-06T14:53:28.395Z,46.91
2023-03-06T14:55:58.240Z,47.05
2023-03-06T14:58:30.298Z,47.35
2023-03-06T15:01:01.478Z,47.22
2023-03-06T15:03:33.993Z,47.32
2023-03-06T15:06:03.275Z,47.19
2023-03-06T15:08:33.426Z,47.55
2023-03-06T15:11:03.306Z,47.65
2023-03-06T15:13:34.594Z,47.73
2023-03-06T15:16:05.512Z,47.71
2023-03-06T15:18:35.834Z,47.88
2023-03-06T15:21:09.306Z,47.99
2023-03-06T15:23:39.826Z,47.77
2023-03-06T15:26:26.993Z,47.94
2023-03-06T15:29:16.848Z,48.13
2023-03-06T15:31:46.316Z,48.16
2023-03-06T15:34:24.998Z,48.20
2023-03-06T15:36:55.633Z,48.01
2023-03-06T15:39:32.188Z,48.15
2023-03-06T15:42:01.721Z,48.24
2023-03-06T15:44:33.510Z,48.29
2023-03-06T15:47:08.632Z,48.33
2023-03-06T15:49:39.598Z,48.44
2023-03-06T15:52:08.933Z,49.01
2023-03-06T15:54:38.644Z,49.21
2023-03-06T15:57:08.734Z,48.77
2023-03-06T15:59:40.697Z,48.79
2023-03-06T16:02:13.503Z,48.95
2023-03-06T16:04:43.134Z,48.87
2023-03-06T16:07:12.564Z,49.00
2023-03-06T16:09:42.624Z,48.60
2023-03-06T16:12:14.648Z,48.99
2023-03-06T16:14:45.695Z,49.05
2023-03-06T16:17:15.080Z,48.83
2023-03-06T16:19:44.949Z,48.85
2023-03-06T16:22:14.578Z,49.02
2023-03-06T16:24:44.104Z,49.07
2023-03-06T16:27:17.053Z,48.95
2023-03-06T16:29:48.251Z,49.12
2023-03-06T16:32:17.547Z,49.29
2023-03-06T16:34:47.297Z,49.29
2023-03-06T16:37:16.593Z,49.16
2023-03-06T16:39:46.194Z,49.26
2023-03-06T16:42:17.142Z,49.15
2023-03-06T16:44:48.177Z,49.46
2023-03-06T16:47:17.436Z,49.18
2023-03-06T16:49:47.125Z,49.41
2023-03-06T16:52:16.426Z,49.65
2023-03-06T16:54:45.982Z,49.61
2023-03-06T16:57:15.592Z,49.56
2023-03-06T16:59:45.242Z,49.43
2023-03-06T17:02:15.985Z,49.39
2023-03-06T17:04:45.682Z,49.29
2023-03-06T17:07:14.861Z,49.94
2023-03-06T17:09:44.613Z,49.49
2023-03-06T17:12:13.835Z,49.82
2023-03-06T17:14:43.424Z,50.07
2023-03-06T17:17:12.627Z,50.13
2023-03-06T17:19:43.626Z,50.06
2023-03-06T17:22:12.833Z,50.18
2023-03-06T17:24:42.552Z,49.93
2023-03-06T17:27:11.797Z,49.97
2023-03-06T17:29:41.394Z,50.08
2023-03-06T17:32:10.672Z,50.25
2023-03-06T17:34:40.257Z,50.32
2023-03-06T17:37:10.911Z,50.75
2023-03-06T17:39:40.699Z,50.89
2023-03-06T17:42:10.073Z,50.87
2023-03-06T17:44:39.699Z,50.80
2023-03-06T17:47:08.876Z,50.98
2023-03-06T17:49:38.557Z,52.74
2023-03-06T17:52:08.140Z,52.94
2023-03-06T17:54:39.264Z,52.06
2023-03-06T17:57:08.503Z,51.53
2023-03-06T17:59:38.076Z,51.60
2023-03-06T18:02:07.563Z,51.65
2023-03-06T18:04:37.189Z,51.41
2023-03-06T18:07:06.608Z,51.10
2023-03-06T18:09:36.189Z,51.61
2023-03-06T18:12:07.152Z,51.45
2023-03-06T18:14:37.153Z,51.15
2023-03-06T18:17:06.412Z,51.35
2023-03-06T18:19:35.885Z,51.09
2023-03-06T18:22:05.079Z,51.47
2023-03-06T18:24:34.734Z,51.14
2023-03-06T18:27:04.106Z,50.84
2023-03-06T18:29:35.173Z,50.76
2023-03-06T18:32:04.535Z,51.22
2023-03-06T18:34:34.242Z,51.40
2023-03-06T18:37:03.507Z,51.22
2023-03-06T18:39:33.543Z,51.40
2023-03-06T18:42:03.256Z,50.87
2023-03-06T18:44:32.895Z,50.98
2023-03-06T18:47:03.571Z,51.08
2023-03-06T18:49:33.139Z,51.15
2023-03-06T18:52:02.400Z,51.07
2023-03-06T18:54:31.981Z,51.31
2023-03-06T18:57:01.170Z,51.02
2023-03-06T18:59:30.731Z,51.00
2023-03-06T19:02:00.012Z,50.62
2023-03-06T19:04:31.056Z,51.10
2023-03-06T19:07:00.396Z,51.60
2023-03-06T19:09:30.010Z,51.20
2023-03-06T19:11:59.308Z,51.12
2023-03-06T19:14:29.045Z,51.16
2023-03-06T19:16:58.374Z,51.21
2023-03-06T19:19:29.417Z,51.04
2023-03-06T19:22:00.174Z,51.43
2023-03-06T19:24:29.704Z,51.82
2023-03-06T19:26:58.963Z,51.48
2023-03-06T19:29:28.619Z,51.10
2023-03-06T19:31:58.977Z,51.00
2023-03-06T19:34:28.583Z,51.37
2023-03-06T19:36:57.837Z,51.33
2023-03-06T19:39:28.839Z,51.12
2023-03-06T19:41:58.093Z,50.89
2023-03-06T19:44:27.733Z,50.90
2023-03-06T19:46:56.945Z,50.86
2023-03-06T19:49:26.515Z,50.95
2023-03-06T19:51:55.831Z,50.82
2023-03-06T19:54:25.685Z,50.77
2023-03-06T19:56:56.378Z,51.21
2023-03-06T19:59:25.999Z,51.30
2023-03-06T20:01:55.251Z,51.24
2023-03-06T20:04:25.172Z,51.07
2023-03-06T20:06:56.467Z,51.39
2023-03-06T20:09:26.047Z,51.19
2023-03-06T20:11:56.809Z,51.28
2023-03-06T20:14:26.328Z,51.33
2023-03-06T20:16:55.628Z,51.52
2023-03-06T20:19:25.256Z,51.33
2023-03-06T20:21:56.038Z,51.50
2023-03-06T20:24:26.163Z,51.79
2023-03-06T20:26:57.883Z,51.90
2023-03-06T20:29:28.481Z,51.89
2023-03-06T20:31:58.247Z,52.02
2023-03-06T20:34:28.049Z,52.22
2023-03-06T20:36:58.027Z,51.72
2023-03-06T20:39:28.658Z,51.91
2023-03-06T20:42:00.249Z,51.95
2023-03-06T20:44:29.935Z,51.98
2023-03-06T20:46:59.187Z,51.98
2023-03-06T20:49:28.792Z,51.66
2023-03-06T20:51:58.037Z,51.80
2023-03-06T20:54:27.575Z,52.11
2023-03-06T20:56:56.769Z,52.00
2023-03-06T20:59:27.770Z,51.71
2023-03-06T21:01:57.014Z,52.03
2023-03-06T21:04:26.648Z,52.32
2023-03-06T21:06:55.978Z,52.28
2023-03-06T21:09:27.057Z,51.96
2023-03-06T21:11:56.489Z,52.21
2023-03-06T21:14:27.531Z,52.46
2023-03-06T21:16:56.706Z,52.36
2023-03-06T21:19:26.737Z,52.27
2023-03-06T21:21:56.062Z,52.71
2023-03-06T21:24:25.623Z,52.51
2023-03-06T21:26:54.823Z,52.49
2023-03-06T21:29:24.425Z,52.43
2023-03-06T21:31:55.168Z,52.23
2023-03-06T21:34:24.829Z,52.42
2023-03-06T21:36:54.067Z,52.44
2023-03-06T21:39:23.583Z,52.46
2023-03-06T21:41:52.826Z,52.46
2023-03-06T21:44:22.585Z,52.58
2023-03-06T21:46:51.755Z,52.79
2023-03-06T21:49:26.173Z,52.67
2023-03-06T21:51:55.463Z,52.58
2023-03-06T21:54:26.939Z,52.25
2023-03-06T21:56:56.239Z,52.55
2023-03-06T21:59:25.853Z,52.57
2023-03-06T22:01:55.109Z,52.60
2023-03-06T22:04:26.182Z,52.52
2023-03-06T22:06:55.405Z,52.52
2023-03-06T22:09:24.947Z,52.39
2023-03-06T22:11:54.205Z,52.57
2023-03-06T22:14:23.722Z,52.51
2023-03-06T22:16:52.936Z,52.47
2023-03-06T22:19:22.492Z,52.54
2023-03-06T22:21:53.119Z,52.14
2023-03-06T22:24:22.790Z,52.23
2023-03-06T22:26:52.053Z,52.64
2023-03-06T22:29:21.618Z,52.64
2023-03-06T22:31:52.118Z,52.61
2023-03-06T22:34:21.748Z,52.48
2023-03-06T22:36:52.396Z,52.69
2023-03-06T22:39:21.982Z,52.70
2023-03-06T22:41:51.344Z,52.40
2023-03-06T22:44:20.953Z,52.70
2023-03-06T22:46:51.822Z,52.59
2023-03-06T22:49:21.305Z,52.69
2023-03-06T22:51:50.513Z,52.42
2023-03-06T22:54:21.553Z,52.33
2023-03-06T22:56:50.756Z,52.68
2023-03-06T22:59:20.278Z,52.83
2023-03-06T23:01:49.435Z,52.62
2023-03-06T23:04:19.073Z,52.69
2023-03-06T23:06:48.313Z,52.96
2023-03-06T23:09:20.721Z,52.66
2023-03-06T23:11:51.364Z,53.04
2023-03-06T23:14:21.003Z,52.49
2023-03-06T23:16:50.194Z,52.65
2023-03-06T23:19:19.758Z,52.79
2023-03-06T23:21:49.850Z,52.92
2023-03-06T23:24:19.348Z,52.64
2023-03-06T23:26:48.639Z,52.92
2023-03-06T23:29:19.722Z,52.97
2023-03-06T23:31:48.937Z,53.04
2023-03-06T23:34:18.467Z,53.00
2023-03-06T23:36:47.690Z,52.78
2023-03-06T23:39:17.398Z,52.91
2023-03-06T23:41:46.623Z,52.81
2023-03-06T23:44:16.169Z,53.08
2023-03-06T23:46:46.807Z,52.94
2023-03-06T23:49:16.728Z,52.68
2023-03-06T23:51:46.002Z,52.91
2023-03-06T23:54:15.580Z,52.79
2023-03-06T23:56:44.826Z,53.06
2023-03-06T23:59:14.366Z,52.98
